Nickel, Texas
Current Conditions -  °F | °C
As of 12:15 AM on Sunday 26 Oct 2014 (Local Time) from KT20 Reporting Station
Clear Clear  
Wind Chill: 67°   Ceiling: Unl
Heat Index: 67°   Visibility: 10mi
Dew Point: 61°   Wind: 5mph
Humidity: 81%   Direction: 180°S
Pressure: 30.09"   Gusts: NA
Location:  29.481°N, 97.4305°W
Report Text: KT20 260515Z AUTO 18004KT 10SM CLR 20/16 A3009 RMK AO2 T01950162
Loading
Personal Weather Stations






























Interactive Weather Map
Tropical Storm Tracking
New forecast layout! Learn more

10-Day Weather Forecast

Advertisements
Track Severe Weather on mobile